createdAt,value
2023-05-25T00:00:19.040Z,86.10
2023-05-25T00:05:21.092Z,86.00
2023-05-25T00:10:24.822Z,85.90
2023-05-25T00:15:26.894Z,86.00
2023-05-25T00:20:28.938Z,85.90
2023-05-25T00:25:30.837Z,85.80
2023-05-25T00:30:32.782Z,85.80
2023-05-25T00:35:34.819Z,85.60
2023-05-25T00:40:38.479Z,85.60
2023-05-25T00:45:40.422Z,85.60
2023-05-25T00:50:44.365Z,85.60
2023-05-25T00:55:49.955Z,85.40
2023-05-25T01:00:56.328Z,85.30
2023-05-25T01:05:58.986Z,85.30
2023-05-25T01:11:03.362Z,85.10
2023-05-25T01:16:06.811Z,85.10
2023-05-25T01:21:42.174Z,85.10
2023-05-25T01:26:48.875Z,85.00
2023-05-25T01:31:54.231Z,85.20
2023-05-25T01:36:56.988Z,85.00
2023-05-25T01:41:59.165Z,84.90
2023-05-25T01:47:10.649Z,85.00
2023-05-25T01:52:12.507Z,85.10
2023-05-25T01:57:17.662Z,85.00
2023-05-25T02:02:21.130Z,85.20
2023-05-25T02:07:23.573Z,85.10
2023-05-25T02:12:25.969Z,85.20
2023-05-25T02:17:28.115Z,85.20
2023-05-25T02:22:30.059Z,85.30
2023-05-25T02:27:31.925Z,86.10
2023-05-25T02:32:33.897Z,85.30
2023-05-25T02:37:36.562Z,85.30
2023-05-25T02:42:38.508Z,86.10
2023-05-25T02:47:40.902Z,85.40
2023-05-25T02:52:43.063Z,85.50
2023-05-25T02:57:45.146Z,85.40
2023-05-25T03:02:53.055Z,86.20
2023-05-25T03:07:55.021Z,85.40
2023-05-25T03:12:56.925Z,85.50
2023-05-25T03:18:01.439Z,85.40
2023-05-25T03:23:06.907Z,85.40
2023-05-25T03:28:09.483Z,85.30
2023-05-25T03:33:13.831Z,85.30
2023-05-25T03:38:19.554Z,85.20
2023-05-25T03:43:22.025Z,85.20
2023-05-25T03:48:24.302Z,85.20
2023-05-25T03:53:26.197Z,85.10
2023-05-25T03:58:28.097Z,85.10
2023-05-25T04:03:33.096Z,85.10
2023-05-25T04:08:35.195Z,85.00
2023-05-25T04:13:40.108Z,85.10
2023-05-25T04:18:43.390Z,85.10
2023-05-25T04:23:45.598Z,85.10
2023-05-25T04:28:48.297Z,85.20
2023-05-25T04:34:16.623Z,85.10
2023-05-25T04:39:38.117Z,85.20
2023-05-25T04:44:40.324Z,85.20
2023-05-25T04:49:42.977Z,85.20
2023-05-25T04:54:44.931Z,85.30
2023-05-25T04:59:49.204Z,85.40
2023-05-25T05:04:53.680Z,85.40
2023-05-25T05:09:56.099Z,85.50
2023-05-25T05:14:58.406Z,85.50
2023-05-25T05:20:01.104Z,85.60
2023-05-25T05:25:03.644Z,85.70
2023-05-25T05:30:06.376Z,85.70
2023-05-25T05:35:08.886Z,85.80
2023-05-25T05:40:18.541Z,85.90
2023-05-25T05:45:21.829Z,86.00
2023-05-25T05:50:26.417Z,86.00
2023-05-25T05:55:28.523Z,86.20
2023-05-25T06:00:30.907Z,86.40
2023-05-25T06:05:32.920Z,86.50
2023-05-25T06:10:36.031Z,86.60
2023-05-25T06:15:38.514Z,86.70
2023-05-25T06:20:45.517Z,87.00
2023-05-25T06:25:47.901Z,87.00
2023-05-25T06:30:50.084Z,87.20
2023-05-25T06:35:52.708Z,87.30
2023-05-25T06:40:54.650Z,87.50
2023-05-25T06:45:56.725Z,87.70
2023-05-25T06:50:58.757Z,87.80
2023-05-25T06:56:00.815Z,87.90
2023-05-25T07:01:02.986Z,88.10
2023-05-25T07:06:06.147Z,88.30
2023-05-25T07:11:10.652Z,88.60
2023-05-25T07:16:12.577Z,88.70
2023-05-25T07:21:14.522Z,88.90
2023-05-25T07:26:16.735Z,88.90
2023-05-25T07:31:18.647Z,89.00
2023-05-25T07:36:20.722Z,89.10
2023-05-25T07:41:22.899Z,89.30
2023-05-25T07:46:25.982Z,89.40
2023-05-25T07:51:30.203Z,89.70
2023-05-25T07:56:32.101Z,90.00
2023-05-25T08:01:34.002Z,90.00
2023-05-25T08:06:35.870Z,90.20
2023-05-25T08:11:38.054Z,90.20
2023-05-25T08:16:40.113Z,90.30
2023-05-25T08:21:42.199Z,90.30
2023-05-25T08:26:54.298Z,90.40
2023-05-25T08:31:57.551Z,90.50
2023-05-25T08:36:59.680Z,90.50
2023-05-25T08:42:02.036Z,90.50
2023-05-25T08:47:07.480Z,90.70
2023-05-25T08:52:18.220Z,90.70
2023-05-25T08:57:23.725Z,91.20
2023-05-25T09:02:52.518Z,90.90
2023-05-25T09:07:54.984Z,90.90
2023-05-25T09:12:57.721Z,90.90
2023-05-25T09:18:00.088Z,91.00
2023-05-25T09:23:03.348Z,91.10
2023-05-25T09:28:24.669Z,91.10
2023-05-25T09:33:28.822Z,91.20
2023-05-25T09:38:31.035Z,91.20
2023-05-25T09:48:43.256Z,91.30
2023-05-25T09:53:46.050Z,91.40
2023-05-25T09:58:48.082Z,91.50
2023-05-25T10:04:04.123Z,91.50
2023-05-25T10:09:11.220Z,91.60
2023-05-25T10:14:16.910Z,91.70
2023-05-25T10:19:27.140Z,91.80
2023-05-25T10:24:42.685Z,91.80
2023-05-25T10:29:47.921Z,91.90
2023-05-25T10:34:52.419Z,91.90
2023-05-25T10:39:57.100Z,91.90
2023-05-25T10:44:59.796Z,91.80
2023-05-25T10:50:03.029Z,91.80
2023-05-25T10:55:05.596Z,91.90
2023-05-25T11:00:08.985Z,91.90
2023-05-25T11:05:26.549Z,91.70
2023-05-25T11:10:50.551Z,91.60
2023-05-25T11:16:23.732Z,91.80
2023-05-25T11:21:31.246Z,91.80
2023-05-25T11:26:34.754Z,91.80
2023-05-25T11:31:42.449Z,92.10
2023-05-25T11:36:45.827Z,91.60
2023-05-25T11:42:11.280Z,91.70
2023-05-25T11:47:14.688Z,91.80
2023-05-25T11:52:22.176Z,91.80
2023-05-25T11:57:25.729Z,91.90
2023-05-25T12:02:28.153Z,91.90
2023-05-25T12:07:31.795Z,91.80
2023-05-25T12:12:41.296Z,91.90
2023-05-25T12:17:44.808Z,91.90
2023-05-25T12:22:47.470Z,91.90
2023-05-25T12:27:51.321Z,91.80
2023-05-25T12:32:55.088Z,91.90
2023-05-25T12:38:21.538Z,91.90
2023-05-25T12:43:23.878Z,91.70
2023-05-25T12:48:29.089Z,91.80
2023-05-25T12:53:31.432Z,91.80
2023-05-25T12:58:33.668Z,91.80
2023-05-25T13:03:35.710Z,91.80
2023-05-25T13:08:39.174Z,91.70
2023-05-25T13:13:41.140Z,91.70
2023-05-25T13:18:43.225Z,91.70
2023-05-25T13:23:45.497Z,91.60
2023-05-25T13:28:50.046Z,91.70
2023-05-25T13:33:52.143Z,91.60
2023-05-25T13:38:55.435Z,91.70
2023-05-25T13:43:58.610Z,91.50
2023-05-25T13:49:04.261Z,91.50
2023-05-25T13:54:06.590Z,91.60
2023-05-25T13:59:09.825Z,91.50
2023-05-25T14:04:14.864Z,91.40
2023-05-25T14:09:17.320Z,91.50
2023-05-25T14:14:30.871Z,91.40
2023-05-25T14:19:35.164Z,91.40
2023-05-25T14:24:37.072Z,91.40
2023-05-25T14:29:39.096Z,91.40
2023-05-25T14:34:41.640Z,91.30
2023-05-25T14:39:43.495Z,91.30
2023-05-25T14:44:45.401Z,91.20
2023-05-25T14:49:47.246Z,91.10
2023-05-25T14:54:49.197Z,91.10
2023-05-25T14:59:51.095Z,91.10
2023-05-25T15:04:54.545Z,91.00
2023-05-25T15:09:56.473Z,91.00
2023-05-25T15:14:58.394Z,91.00
2023-05-25T15:20:00.750Z,90.90
2023-05-25T15:25:02.930Z,90.90
2023-05-25T15:30:07.203Z,90.90
2023-05-25T15:35:09.487Z,91.00
2023-05-25T15:40:12.142Z,90.90
2023-05-25T15:45:14.091Z,90.90
2023-05-25T15:50:16.478Z,90.80
2023-05-25T15:55:18.450Z,90.80
2023-05-25T16:00:20.602Z,90.80
2023-05-25T16:05:22.721Z,90.60
2023-05-25T16:10:24.589Z,90.60
2023-05-25T16:15:26.687Z,90.60
2023-05-25T16:20:28.637Z,90.60
2023-05-25T16:25:30.636Z,90.60
2023-05-25T16:30:32.472Z,90.60
2023-05-25T16:35:34.395Z,90.70
2023-05-25T16:40:37.160Z,90.70
2023-05-25T16:45:39.070Z,90.70
2023-05-25T16:50:44.252Z,90.70
2023-05-25T16:55:46.237Z,90.60
2023-05-25T17:00:48.221Z,90.60
2023-05-25T17:05:52.362Z,90.60
2023-05-25T17:10:56.597Z,90.60
2023-05-25T17:15:58.755Z,90.70
2023-05-25T17:21:01.896Z,90.70
2023-05-25T17:26:04.141Z,90.60
2023-05-25T17:31:06.343Z,90.50
2023-05-25T17:36:08.361Z,90.40
2023-05-25T17:41:10.498Z,90.40
2023-05-25T17:46:12.365Z,90.40
2023-05-25T17:51:14.594Z,90.30
2023-05-25T17:56:16.473Z,90.30
2023-05-25T18:01:18.448Z,90.30
2023-05-25T18:06:20.823Z,90.20
2023-05-25T18:11:23.359Z,90.30
2023-05-25T18:16:25.436Z,90.50
2023-05-25T18:21:27.351Z,90.20
2023-05-25T18:26:29.364Z,90.20
2023-05-25T18:31:32.553Z,90.20
2023-05-25T18:36:38.235Z,90.10
2023-05-25T18:41:41.860Z,90.10
2023-05-25T18:46:45.270Z,90.10
2023-05-25T18:51:47.354Z,90.10
2023-05-25T18:56:49.247Z,90.00
2023-05-25T19:01:51.381Z,90.00
2023-05-25T19:06:53.322Z,90.00
2023-05-25T19:11:55.149Z,90.00
2023-05-25T19:16:57.042Z,90.00
2023-05-25T19:21:58.995Z,90.00
2023-05-25T19:27:04.429Z,90.00
2023-05-25T19:32:06.852Z,90.00
2023-05-25T19:37:11.302Z,89.80
2023-05-25T19:42:14.024Z,89.80
2023-05-25T19:47:15.950Z,89.70
2023-05-25T19:52:18.231Z,89.70
2023-05-25T19:57:20.993Z,89.60
2023-05-25T20:02:23.008Z,89.60
2023-05-25T20:07:25.052Z,89.50
2023-05-25T20:12:26.905Z,89.40
2023-05-25T20:17:28.724Z,89.60
2023-05-25T20:22:32.049Z,89.50
2023-05-25T20:27:34.734Z,90.00
2023-05-25T20:32:36.998Z,89.30
2023-05-25T20:37:39.353Z,89.20
2023-05-25T20:42:41.451Z,89.20
2023-05-25T20:47:43.418Z,89.10
2023-05-25T20:52:45.470Z,89.20
2023-05-25T20:57:47.524Z,89.10
2023-05-25T21:02:49.815Z,88.90
2023-05-25T21:07:52.050Z,89.00
2023-05-25T21:12:53.964Z,88.90
2023-05-25T21:17:56.900Z,89.00
2023-05-25T21:22:58.901Z,88.90
2023-05-25T21:28:00.841Z,88.90
2023-05-25T21:33:02.882Z,88.90
2023-05-25T21:38:04.939Z,88.90
2023-05-25T21:43:09.201Z,88.90
2023-05-25T21:48:13.902Z,88.80
2023-05-25T21:53:15.929Z,88.80
2023-05-25T21:58:18.325Z,88.70
2023-05-25T22:03:20.425Z,88.80
2023-05-25T22:08:22.426Z,88.80
2023-05-25T22:13:24.347Z,88.90
2023-05-25T22:18:26.412Z,88.80
2023-05-25T22:23:28.389Z,88.80
2023-05-25T22:28:30.367Z,88.70
2023-05-25T22:33:32.286Z,88.80
2023-05-25T22:38:36.279Z,88.60
2023-05-25T22:43:38.140Z,88.70
2023-05-25T22:48:40.663Z,88.80
2023-05-25T22:53:42.991Z,88.70
2023-05-25T22:58:44.921Z,88.70
2023-05-25T23:03:46.948Z,88.70
2023-05-25T23:08:49.025Z,88.80
2023-05-25T23:13:51.650Z,88.70
2023-05-25T23:18:53.788Z,88.70
2023-05-25T23:23:55.951Z,88.90
2023-05-25T23:28:57.897Z,88.90
2023-05-25T23:33:59.936Z,88.80
2023-05-25T23:39:01.833Z,88.80
2023-05-25T23:44:03.754Z,88.90
2023-05-25T23:49:05.662Z,88.80
2023-05-25T23:54:07.657Z,88.80
2023-05-25T23:59:09.610Z,88.80
